Time;durP1;ratioP1;P1;durP2;ratioP2;P2;SDS_P1;SDS_P2;PMS_P1;PMS_P2;Temp;Humidity;BMP_temperature;BMP_pressure;BME280_temperature;BME280_humidity;BME280_pressure;Samples;Min_cycle;Max_cycle;Signal;HPM_P1;HPM_P2
2021/03/25 12:58:01;;;;;;;17.13;9.45;;;21.80;64.20;;;;;;5160721;27;20316;-77
2021/03/25 13:00:29;;;;;;;16.67;9.52;;;20.70;63.80;;;;;;5159198;27;20529;-76
2021/03/25 13:02:55;;;;;;;19.08;9.82;;;20.40;64.30;;;;;;5138512;27;20062;-79
2021/03/25 13:05:21;;;;;;;16.70;10.02;;;19.80;67.00;;;;;;5119027;27;20403;-79
2021/03/25 13:07:48;;;;;;;16.52;9.30;;;19.30;68.10;;;;;;5140802;27;20024;-80
2021/03/25 13:10:16;;;;;;;16.50;10.30;;;19.40;69.20;;;;;;5137694;27;20046;-79
2021/03/25 13:12:42;;;;;;;17.95;10.85;;;19.40;68.30;;;;;;5148973;27;20030;-79
2021/03/25 13:15:08;;;;;;;16.92;10.07;;;19.20;69.50;;;;;;5145796;27;20031;-79
2021/03/25 13:17:34;;;;;;;19.23;8.93;;;19.50;69.20;;;;;;5144283;27;20047;-79
2021/03/25 13:19:59;;;;;;;11.98;7.53;;;20.00;67.50;;;;;;5144787;27;20023;-79
2021/03/25 13:22:26;;;;;;;14.52;8.35;;;19.60;63.40;;;;;;5139800;27;20023;-79
2021/03/25 13:24:53;;;;;;;14.48;7.72;;;19.20;65.60;;;;;;5144619;27;20165;-78
2021/03/25 13:27:19;;;;;;;19.35;8.27;;;19.40;66.30;;;;;;5146776;27;20376;-78
2021/03/25 13:29:45;;;;;;;14.50;7.93;;;19.30;65.90;;;;;;5144791;27;20027;-78
2021/03/25 13:32:10;;;;;;;12.63;6.15;;;19.20;67.20;;;;;;5105638;27;20356;-78
2021/03/25 13:34:36;;;;;;;18.75;6.40;;;19.20;64.90;;;;;;5139670;27;20034;-78
2021/03/25 13:37:02;;;;;;;15.00;7.13;;;18.90;65.10;;;;;;5150106;27;20539;-78
2021/03/25 13:39:28;;;;;;;15.80;7.47;;;19.40;63.60;;;;;;5142964;27;20171;-78
2021/03/25 13:41:54;;;;;;;14.05;7.22;;;19.90;63.70;;;;;;5134276;27;20043;-79
2021/03/25 13:44:19;;;;;;;13.63;8.10;;;19.90;64.50;;;;;;5109584;27;20023;-78
2021/03/25 13:46:45;;;;;;;16.67;7.45;;;20.40;64.30;;;;;;5126156;27;20039;-78
2021/03/25 13:49:11;;;;;;;16.23;7.53;;;20.10;64.20;;;;;;5140543;27;20099;-78
2021/03/25 13:51:37;;;;;;;13.25;6.68;;;20.20;64.40;;;;;;5124875;27;20031;-78
2021/03/25 13:54:03;;;;;;;10.93;6.35;;;20.40;65.30;;;;;;5119681;27;20031;-76
2021/03/25 13:56:29;;;;;;;19.30;8.50;;;20.70;63.20;;;;;;5130023;27;20036;-78
2021/03/25 13:58:55;;;;;;;15.18;6.97;;;20.70;62.30;;;;;;5139386;27;20024;-79
2021/03/25 14:01:20;;;;;;;11.10;6.82;;;20.80;62.80;;;;;;5142765;27;20028;-78
2021/03/25 14:03:46;;;;;;;13.55;7.60;;;21.00;61.30;;;;;;5154483;27;20499;-75
2021/03/25 14:06:12;;;;;;;14.35;7.40;;;21.00;61.90;;;;;;5142468;27;20399;-75
2021/03/25 14:08:38;;;;;;;13.32;7.30;;;20.90;61.10;;;;;;5128168;27;20050;-77
2021/03/25 14:11:03;;;;;;;14.52;7.20;;;21.10;61.90;;;;;;5108206;27;20054;-77
2021/03/25 14:13:29;;;;;;;15.05;7.80;;;21.60;60.60;;;;;;5123005;27;20063;-78
2021/03/25 14:15:55;;;;;;;16.15;8.38;;;21.00;61.60;;;;;;5123799;27;20027;-77
2021/03/25 14:18:26;;;;;;;12.80;7.85;;;20.50;62.00;;;;;;5081764;28;20337;-77
2021/03/25 14:20:53;;;;;;;16.58;7.38;;;20.90;61.70;;;;;;5126780;27;20023;-78
2021/03/25 14:23:21;;;;;;;15.52;7.40;;;20.90;62.40;;;;;;5106928;27;20027;-76
2021/03/25 14:25:47;;;;;;;12.00;7.47;;;21.00;61.80;;;;;;5104762;27;20095;-75
2021/03/25 14:28:19;;;;;;;11.93;7.75;;;21.20;61.50;;;;;;5128254;27;20050;-76
2021/03/25 14:30:45;;;;;;;16.40;7.50;;;21.60;60.50;;;;;;5125341;27;20020;-76
2021/03/25 14:33:11;;;;;;;12.73;7.07;;;21.50;61.60;;;;;;5111812;27;20752;-77
2021/03/25 14:35:40;;;;;;;11.45;6.78;;;21.30;62.70;;;;;;5124456;27;20490;-77
2021/03/25 14:38:07;;;;;;;11.65;7.05;;;22.50;61.30;;;;;;5110533;27;20031;-76
2021/03/25 14:40:34;;;;;;;11.90;7.18;;;22.40;59.60;;;;;;5129725;27;20039;-77
2021/03/25 14:43:02;;;;;;;13.77;7.90;;;22.10;60.70;;;;;;5118076;27;20016;-77
2021/03/25 14:45:30;;;;;;;13.20;7.40;;;21.50;59.80;;;;;;5127565;27;20030;-77
2021/03/25 14:47:55;;;;;;;14.55;7.43;;;21.30;61.10;;;;;;5090008;27;20031;-77
2021/03/25 14:50:22;;;;;;;12.23;7.30;;;22.00;60.70;;;;;;5105686;27;20032;-77
2021/03/25 14:52:48;;;;;;;13.93;7.88;;;22.70;58.80;;;;;;5110531;27;20084;-77
2021/03/25 14:55:16;;;;;;;12.40;6.88;;;23.70;57.20;;;;;;5092245;28;20514;-77
2021/03/25 14:57:41;;;;;;;13.30;7.45;;;24.00;56.40;;;;;;5122301;27;20039;-77
2021/03/25 15:00:11;;;;;;;14.57;7.47;;;23.60;56.80;;;;;;5124885;27;20031;-76
2021/03/25 15:02:36;;;;;;;14.40;6.82;;;23.00;57.80;;;;;;5129440;27;20045;-76
2021/03/25 15:05:03;;;;;;;14.63;6.65;;;22.80;58.50;;;;;;5097288;27;21623;-76
2021/03/25 15:07:28;;;;;;;11.93;6.53;;;22.80;58.60;;;;;;5123829;27;20124;-76
2021/03/25 15:09:54;;;;;;;13.25;6.88;;;23.00;57.80;;;;;;5107478;27;20503;-76
2021/03/25 15:12:19;;;;;;;12.02;6.97;;;23.10;58.00;;;;;;5120726;27;20034;-76
2021/03/25 15:14:45;;;;;;;16.67;7.25;;;22.50;58.40;;;;;;5117147;27;20046;-75
2021/03/25 15:17:11;;;;;;;9.23;6.25;;;23.00;58.40;;;;;;5128765;27;20039;-77
2021/03/25 15:19:37;;;;;;;9.27;6.55;;;22.20;57.90;;;;;;5088511;27;20036;-77
2021/03/25 15:22:04;;;;;;;12.73;6.25;;;22.30;58.50;;;;;;5124181;27;20214;-77
2021/03/25 15:24:30;;;;;;;12.27;6.78;;;22.40;58.60;;;;;;5107666;27;20016;-77
2021/03/25 15:26:56;;;;;;;10.70;5.85;;;19.10;57.00;;;;;;5120629;27;20036;-77
2021/03/25 15:29:22;;;;;;;12.05;5.88;;;21.60;58.40;;;;;;5122384;27;20042;-77
2021/03/25 15:31:49;;;;;;;10.40;6.22;;;22.10;58.00;;;;;;5124249;27;20027;-77
2021/03/25 15:34:15;;;;;;;14.15;6.10;;;22.20;57.70;;;;;;5123693;27;20027;-77
2021/03/25 15:36:42;;;;;;;14.32;6.07;;;22.10;57.60;;;;;;5124351;27;20461;-77
2021/03/25 15:39:08;;;;;;;12.05;6.45;;;22.00;58.40;;;;;;5120072;27;20076;-77
2021/03/25 15:41:34;;;;;;;10.95;5.75;;;21.80;58.80;;;;;;5084572;28;20027;-77
2021/03/25 15:44:00;;;;;;;10.73;5.88;;;21.80;58.50;;;;;;5110107;27;20036;-77
2021/03/25 15:46:28;;;;;;;10.55;6.22;;;21.60;58.80;;;;;;5104223;28;20024;-75
2021/03/25 15:48:54;;;;;;;11.18;6.32;;;21.70;58.80;;;;;;5088129;28;20114;-76
2021/03/25 15:51:22;;;;;;;10.77;6.10;;;21.50;58.60;;;;;;5104757;28;20478;-76
2021/03/25 15:53:48;;;;;;;12.02;6.28;;;20.40;60.00;;;;;;5107842;28;20028;-76
2021/03/25 15:56:16;;;;;;;8.68;5.25;;;20.30;61.20;;;;;;5108155;28;20568;-76
2021/03/25 15:58:42;;;;;;;11.40;5.68;;;20.30;62.40;;;;;;5108954;28;20015;-76
2021/03/25 16:01:09;;;;;;;13.75;5.63;;;20.60;62.00;;;;;;5109588;28;20441;-77
2021/03/25 16:03:35;;;;;;;11.18;5.55;;;20.60;60.50;;;;;;5092988;28;20121;-75
2021/03/25 16:06:01;;;;;;;11.13;5.30;;;20.70;60.40;;;;;;5112426;28;20116;-78
2021/03/25 16:08:27;;;;;;;7.53;5.03;;;19.80;62.60;;;;;;5110874;28;20020;-78
2021/03/25 16:10:53;;;;;;;11.52;5.05;;;19.50;62.90;;;;;;5093758;28;20032;-74
2021/03/25 16:13:18;;;;;;;10.90;5.90;;;19.50;62.90;;;;;;5111181;28;20016;-78
2021/03/25 16:15:47;;;;;;;11.48;5.47;;;19.40;63.00;;;;;;5076518;28;20034;-78
2021/03/25 16:18:15;;;;;;;10.70;5.97;;;19.50;62.90;;;;;;5091742;28;20038;-74
2021/03/25 16:20:43;;;;;;;7.50;4.95;;;19.00;63.30;;;;;;5093061;28;20656;-78
2021/03/25 16:23:20;;;;;;;9.77;4.95;;;18.80;64.90;;;;;;5100999;28;20488;-77
2021/03/25 16:25:45;;;;;;;11.32;4.97;;;18.80;64.00;;;;;;5103954;28;20012;-76
2021/03/25 16:28:11;;;;;;;9.20;4.22;;;18.90;65.10;;;;;;5103461;28;20098;-73
2021/03/25 16:30:39;;;;;;;10.52;6.07;;;19.30;64.60;;;;;;5100293;28;20024;-78
2021/03/25 16:33:06;;;;;;;9.25;5.43;;;19.70;63.70;;;;;;5091161;28;20035;-77
2021/03/25 16:35:36;;;;;;;12.27;5.50;;;20.00;64.20;;;;;;5093244;28;20025;-75
2021/03/25 16:38:04;;;;;;;11.57;5.50;;;19.80;64.10;;;;;;5099309;28;20019;-77
2021/03/25 16:40:31;;;;;;;10.80;6.07;;;19.40;64.10;;;;;;5110530;28;20016;-79
2021/03/25 16:42:57;;;;;;;10.93;5.25;;;19.10;64.60;;;;;;5101816;28;20024;-79
2021/03/25 16:45:30;;;;;;;12.60;7.20;;;18.50;65.80;;;;;;5090841;28;20474;-78
2021/03/25 16:47:56;;;;;;;13.32;5.63;;;18.00;66.80;;;;;;5089208;28;20038;-76
2021/03/25 16:50:25;;;;;;;10.60;5.32;;;17.90;67.90;;;;;;5073039;28;20118;-76
2021/03/25 16:52:51;;;;;;;11.48;6.07;;;17.40;68.70;;;;;;5071913;28;20108;-76
2021/03/25 16:55:18;;;;;;;11.20;5.72;;;17.00;70.20;;;;;;5110555;28;20031;-75
2021/03/25 16:57:44;;;;;;;15.25;5.65;;;16.80;71.90;;;;;;5097218;28;20031;-76
2021/03/25 17:00:12;;;;;;;13.00;5.88;;;16.70;72.50;;;;;;5118342;28;20088;-75
2021/03/25 17:02:38;;;;;;;10.05;5.85;;;16.70;72.70;;;;;;5114913;28;20015;-76
2021/03/25 17:05:04;;;;;;;10.02;5.35;;;16.60;72.50;;;;;;5093110;28;20383;-75
2021/03/25 17:07:30;;;;;;;12.25;5.80;;;16.60;72.90;;;;;;5110066;28;20024;-76
2021/03/25 17:09:56;;;;;;;10.15;5.88;;;16.60;73.00;;;;;;5094223;28;20165;-75
2021/03/25 17:12:22;;;;;;;10.82;5.88;;;16.60;73.10;;;;;;5093057;28;20380;-75
2021/03/25 17:14:48;;;;;;;12.95;5.95;;;16.40;73.50;;;;;;5093456;28;20046;-75
2021/03/25 17:17:13;;;;;;;9.25;5.60;;;16.20;73.90;;;;;;5111967;28;20038;-75
2021/03/25 17:19:39;;;;;;;12.30;5.85;;;16.00;74.70;;;;;;5093703;28;20020;-77
2021/03/25 17:22:05;;;;;;;10.20;5.68;;;15.80;75.70;;;;;;5093984;28;20024;-76
2021/03/25 17:24:31;;;;;;;10.45;5.25;;;15.50;77.00;;;;;;5112565;28;20019;-75
2021/03/25 17:26:57;;;;;;;12.80;5.47;;;15.20;78.00;;;;;;5111695;28;20027;-74
2021/03/25 17:29:23;;;;;;;10.48;5.45;;;15.10;79.60;;;;;;5111620;28;20023;-75
2021/03/25 17:31:49;;;;;;;11.55;5.78;;;15.00;80.60;;;;;;5109572;28;20499;-74
2021/03/25 17:34:15;;;;;;;11.68;5.47;;;14.80;81.80;;;;;;5092779;28;20027;-77
2021/03/25 17:36:41;;;;;;;11.30;5.10;;;14.70;83.00;;;;;;5111448;28;20027;-74
2021/03/25 17:39:07;;;;;;;10.38;5.88;;;14.60;84.40;;;;;;5111139;28;20468;-75
2021/03/25 17:41:33;;;;;;;10.32;5.72;;;14.50;86.60;;;;;;5110678;28;20467;-75
2021/03/25 17:43:59;;;;;;;10.57;6.07;;;14.40;86.90;;;;;;5119448;27;20485;-74
2021/03/25 17:46:24;;;;;;;16.20;10.55;;;14.20;89.40;;;;;;5094850;28;20117;-76
2021/03/25 17:48:50;;;;;;;10.60;6.90;;;14.30;90.30;;;;;;5095072;28;20107;-74
2021/03/25 17:51:18;;;;;;;11.52;6.68;;;13.90;91.40;;;;;;5094485;22;20033;-81
2021/03/25 17:53:44;;;;;;;11.75;5.95;;;14.00;92.40;;;;;;5057293;28;20029;-83
2021/03/25 17:56:10;;;;;;;10.80;6.00;;;14.30;93.40;;;;;;5057421;28;20036;-81
2021/03/25 17:58:36;;;;;;;10.07;5.32;;;13.50;94.70;;;;;;5063137;28;20419;-80
2021/03/25 18:01:04;;;;;;;11.75;5.22;;;13.90;96.10;;;;;;5084320;28;20027;-80
2021/03/25 18:03:29;;;;;;;13.30;6.10;;;13.00;97.80;;;;;;5084842;28;20021;-81
2021/03/25 18:05:58;;;;;;;10.55;5.32;;;12.90;99.60;;;;;;5078828;28;20044;-81
2021/03/25 18:08:25;;;;;;;8.27;4.82;;;12.90;99.90;;;;;;5065590;28;20032;-80
2021/03/25 18:10:52;;;;;;;10.93;5.10;;;12.90;99.90;;;;;;5086043;28;20094;-81
2021/03/25 18:13:40;;;;;;;8.98;4.50;;;14.10;99.90;;;;;;5081969;28;20047;-81
2021/03/25 18:16:09;;;;;;;11.52;5.82;;;12.90;99.90;;;;;;5078526;28;20024;-79
2021/03/25 18:18:36;;;;;;;9.88;5.38;;;13.00;99.90;;;;;;5076543;28;20466;-81
2021/03/25 18:21:05;;;;;;;15.93;6.03;;;13.00;99.90;;;;;;5059773;28;20031;-81
2021/03/25 18:23:31;;;;;;;11.13;5.60;;;12.90;99.90;;;;;;5069417;28;20082;-80
2021/03/25 18:25:57;;;;;;;10.82;5.18;;;13.60;99.90;;;;;;5074866;28;20062;-80
2021/03/25 18:28:28;;;;;;;9.82;4.95;;;13.00;99.90;;;;;;5058694;28;20024;-80
2021/03/25 18:36:51;;;;;;;11.77;5.47;;;15.10;99.90;;;;;;5036666;28;20037;-82
2021/03/25 18:39:21;;;;;;;9.88;5.55;;;13.10;99.90;;;;;;5023337;28;20025;-82
2021/03/25 18:41:48;;;;;;;10.32;4.63;;;13.40;99.90;;;;;;5038921;28;20028;-81
2021/03/25 18:44:14;;;;;;;10.77;5.68;;;13.20;99.90;;;;;;5022729;28;20421;-81
2021/03/25 18:46:40;;;;;;;10.20;4.88;;;13.70;99.90;;;;;;5021620;28;20037;-80
2021/03/25 18:49:05;;;;;;;7.88;4.63;;;12.80;99.90;;;;;;5038127;28;20029;-80
2021/03/25 18:51:32;;;;;;;10.35;4.65;;;12.80;99.90;;;;;;5038191;28;20033;-80
2021/03/25 18:53:59;;;;;;;9.45;4.90;;;12.70;99.90;;;;;;5019742;28;20080;-80
